createdAt,value
2022-10-05T07:40:22.362Z,1025.22
2022-10-05T08:15:23.776Z,1025.54
2022-10-05T08:25:42.914Z,1025.59
2022-10-05T08:26:43.781Z,1025.59
2022-10-05T08:27:44.453Z,1025.59
2022-10-05T08:28:45.252Z,1025.58
2022-10-05T08:29:45.849Z,1025.58
2022-10-05T08:30:46.789Z,1025.58
2022-10-05T08:31:47.641Z,1025.59
2022-10-05T08:32:47.876Z,1025.59
2022-10-05T08:33:48.971Z,1025.61
2022-10-05T08:34:49.173Z,1025.62
2022-10-05T08:35:49.963Z,1025.61
2022-10-05T08:36:53.900Z,1025.62
2022-10-05T08:37:51.305Z,1025.62
2022-10-05T08:38:52.138Z,1025.62
2022-10-05T08:39:52.996Z,1025.62
2022-10-05T08:40:53.656Z,1025.61
2022-10-05T08:41:54.492Z,1025.60
2022-10-05T08:42:55.281Z,1025.59
2022-10-05T08:43:55.901Z,1025.59
2022-10-05T08:48:48.982Z,1025.56
2022-10-05T08:49:49.585Z,1025.56
2022-10-05T08:50:50.265Z,1025.55
2022-10-05T08:51:50.905Z,1025.55
2022-10-05T08:52:51.583Z,1025.54
2022-10-05T08:53:52.337Z,1025.51
2022-10-05T08:58:08.720Z,1025.51
2022-10-05T08:59:09.601Z,1025.50
2022-10-05T09:00:10.448Z,1025.51
2022-10-05T09:01:11.164Z,1025.51
2022-10-05T09:02:11.833Z,1025.52
2022-10-05T09:03:12.493Z,1025.55
2022-10-05T09:04:13.540Z,1025.56
2022-10-05T09:05:13.856Z,1025.56
2022-10-05T09:06:14.717Z,1025.58
2022-10-05T09:07:15.531Z,1025.58
2022-10-05T09:08:16.575Z,1025.59
2022-10-05T09:09:17.044Z,1025.59
2022-10-05T09:10:17.660Z,1025.59
2022-10-05T09:11:18.684Z,1025.60
2022-10-05T09:12:19.479Z,1025.60
2022-10-05T10:01:34.706Z,1025.43
2022-10-05T10:02:25.414Z,1025.43
2022-10-05T10:03:25.375Z,1025.43
2022-10-05T10:04:26.129Z,1025.41
2022-10-05T10:05:26.897Z,1025.40
2022-10-05T10:06:27.950Z,1025.41
2022-10-05T10:07:28.121Z,1025.41
